Blythe Airport
KBLH : now visible

Airfield :











YOU CAN JOIN US ON...

 
LOGIN :

Register | Disclaimer

   EN    FR    IT 

 









Legend :    VFR   Marginal VFR   IFR   Intensive IFR   Very Intensive IFR
Visi :
Ceiling :
>= 8 km
>= 3000ft
5 to 8 km
1000 to 3000 ft
1500m to 5 km
500 to 1000 ft
800 to 1500m
200 to 500 ft
< 800m
< 200 ft
Symbols :   Thunderstorms  Fog  Heavy snow  Heavy precipitations  Wind > 20 kt






- Airport Elevation : 399 ft


KBLH - Blythe

CURRENT METAR :
  • 250852Z AUTO 21003KT 10SM CLR 31/09 A2977 RMK AO2 SLP074 T03060094 51003

EXPIRED METARs :
  • 250752Z AUTO 24009KT 10SM CLR 33/07 A2977 RMK AO2 SLP074 T03330067 404170233
  • 250652Z AUTO 24008KT 10SM CLR 33/07 A2977 RMK AO2 SLP073 T03330072

TAF KBLH
Valid from the 25 at 06:00 until the 26 at 06:00 UTC


250520Z 2506/2606 25009KT P6SM FEW100
FM250800 VRB05KT P6SM SKC
FM252000 22012KT P6SM SKC
FM260300 24007KT P6SM SKC
KZLA FIR / North America



MET'MAP, your aeronautical weather chart ! - Copyright ORBIFLY December 2007 - Disclaimer

ORBIFLY MET'MAP TEAM :

Programming & Development : Alexandra Zaïnal
Concept & original design : Baudouin d'Aumeries
Assistance for programming : Marc-Olivier Méhu
Technical & hardware support : Manuel Goepfert

Contact : metmap@orbifly.com




SOURCES & CREDITS :

   NOAA       Earth
Advisory